Airfield :
LOGIN :

Register | Disclaimer

   EN    FR    IT 

 










Legend :    VFR   Marginal VFR   IFR   Intensive IFR   Very Intensive IFR
Visi :
Ceiling :
>= 8 km
>= 3000ft
5 to 8 km
1000 to 3000 ft
1500m to 5 km
500 to 1000 ft
800 to 1500m
200 to 500 ft
< 800m
< 200 ft
Symbols :   Thunderstorms  Fog  Heavy snow  Heavy precipitations  Wind > 20 kt
SIGMETs :     Misc.  Thunderstorms  Icing  Turbulence  Mountain Waves  Volcanic Ashes







- Airport Elevation : 195 ft
- Download approach charts


LFMY - Salon de Provence

CURRENT METAR :
  • 171330Z AUTO 33008KT 9999 SCT048 SCT130 23/14 Q1014 NOSIG

EXPIRED METARs :
  • 171300Z AUTO 33009KT 9999 FEW035 SCT044 23/15 Q1014 NOSIG
  • 171230Z AUTO 32005KT 250V350 9999 FEW041 SCT047 23/15 Q1015 NOSIG
  • 171200Z AUTO 33004KT 280V350 CAVOK 22/16 Q1015 NOSIG
  • 171130Z AUTO 32003KT 270V020 CAVOK 21/16 Q1016 NOSIG
  • 171100Z AUTO 33004KT CAVOK 20/15 Q1016 NOSIG

TAF TAF LFMY
Valid from the 17 at 09:00 until the 18 at 09:00 UTC


170800Z 1709/1809 31005KT CAVOK
FM172200 VRB02KT 5000 RA SCT012 BKN030
No reported NOTAMs for that airfield.



MET'MAP, your aeronautical weather chart ! - Copyright ORBIFLY December 2007 - Disclaimer

ORBIFLY MET'MAP TEAM :

Programming & Development : Alexandra Zaïnal
Concept & Development : Baudouin d'Aumeries
Co-Development & Prog : Marc-Olivier Méhu
Technical & hardware support : Manuel Goepfert

Contact : metmap@orbifly.com




SOURCES & CREDITS :

   NOAA